sensor_id;sensor_type;location;lat;lon;timestamp;pressure;altitude;pressure_sealevel;temperature;humidity
23303;BME280;11820;48.738;9.092;2023-04-10T00:00:00;96867.63;;;8.57;nan
23303;BME280;11820;48.738;9.092;2023-04-10T00:02:25;96867.81;;;8.56;nan
23303;BME280;11820;48.738;9.092;2023-04-10T00:04:50;96859.75;;;8.59;nan
23303;BME280;11820;48.738;9.092;2023-04-10T00:07:16;96864.78;;;8.44;nan
23303;BME280;11820;48.738;9.092;2023-04-10T00:09:41;96863.69;;;8.31;nan
23303;BME280;11820;48.738;9.092;2023-04-10T00:12:06;96861.09;;;8.15;nan
23303;BME280;11820;48.738;9.092;2023-04-10T00:14:32;96857.25;;;8.19;nan
23303;BME280;11820;48.738;9.092;2023-04-10T00:16:57;96864.97;;;8.27;nan
23303;BME280;11820;48.738;9.092;2023-04-10T00:19:23;96865.44;;;8.06;nan
23303;BME280;11820;48.738;9.092;2023-04-10T00:21:48;96864.97;;;8.11;nan
23303;BME280;11820;48.738;9.092;2023-04-10T00:24:13;96862.88;;;8.22;nan
23303;BME280;11820;48.738;9.092;2023-04-10T00:26:39;96865.78;;;8.27;nan
23303;BME280;11820;48.738;9.092;2023-04-10T00:29:04;96851.75;;;8.38;nan
23303;BME280;11820;48.738;9.092;2023-04-10T00:31:30;96855.97;;;8.31;nan
23303;BME280;11820;48.738;9.092;2023-04-10T00:33:56;96847.25;;;8.32;nan
23303;BME280;11820;48.738;9.092;2023-04-10T00:36:21;96840.13;;;8.42;nan
23303;BME280;11820;48.738;9.092;2023-04-10T00:38:47;96850.13;;;8.37;nan
23303;BME280;11820;48.738;9.092;2023-04-10T00:41:14;96839.84;;;8.37;nan
23303;BME280;11820;48.738;9.092;2023-04-10T00:43:39;96840.13;;;8.42;nan
23303;BME280;11820;48.738;9.092;2023-04-10T00:46:04;96844.63;;;8.48;nan
23303;BME280;11820;48.738;9.092;2023-04-10T00:48:31;96836.63;;;8.27;nan
23303;BME280;11820;48.738;9.092;2023-04-10T00:50:57;96838.25;;;8.20;nan
23303;BME280;11820;48.738;9.092;2023-04-10T00:53:22;96836.13;;;8.15;nan
23303;BME280;11820;48.738;9.092;2023-04-10T00:55:48;96836.50;;;8.20;nan
23303;BME280;11820;48.738;9.092;2023-04-10T00:58:14;96831.94;;;8.14;nan
23303;BME280;11820;48.738;9.092;2023-04-10T01:00:40;96830.53;;;8.12;nan
23303;BME280;11820;48.738;9.092;2023-04-10T01:03:06;96833.72;;;8.14;nan
23303;BME280;11820;48.738;9.092;2023-04-10T01:06:02;96835.03;;;8.18;nan
23303;BME280;11820;48.738;9.092;2023-04-10T01:14:12;96842.78;;;8.18;nan
23303;BME280;11820;48.738;9.092;2023-04-10T01:16:53;96846.28;;;8.17;nan
23303;BME280;11820;48.738;9.092;2023-04-10T01:19:49;96844.84;;;7.91;nan
23303;BME280;11820;48.738;9.092;2023-04-10T01:22:27;96848.25;;;7.75;nan
23303;BME280;11820;48.738;9.092;2023-04-10T01:28:15;96848.13;;;7.69;nan
23303;BME280;11820;48.738;9.092;2023-04-10T01:31:06;96847.47;;;7.75;nan
23303;BME280;11820;48.738;9.092;2023-04-10T01:33:48;96849.84;;;7.76;nan
23303;BME280;11820;48.738;9.092;2023-04-10T01:36:26;96847.94;;;7.62;nan
23303;BME280;11820;48.738;9.092;2023-04-10T01:38:56;96848.25;;;7.51;nan
23303;BME280;11820;48.738;9.092;2023-04-10T01:41:22;96839.75;;;7.51;nan
23303;BME280;11820;48.738;9.092;2023-04-10T01:43:50;96841.50;;;7.42;nan
23303;BME280;11820;48.738;9.092;2023-04-10T01:46:20;96832.50;;;7.46;nan
23303;BME280;11820;48.738;9.092;2023-04-10T01:48:46;96831.69;;;7.38;nan
23303;BME280;11820;48.738;9.092;2023-04-10T01:51:13;96828.00;;;7.40;nan
23303;BME280;11820;48.738;9.092;2023-04-10T01:53:44;96826.53;;;7.30;nan
23303;BME280;11820;48.738;9.092;2023-04-10T01:56:11;96825.09;;;7.35;nan
23303;BME280;11820;48.738;9.092;2023-04-10T01:58:37;96834.41;;;7.44;nan
23303;BME280;11820;48.738;9.092;2023-04-10T02:01:02;96831.06;;;7.44;nan
23303;BME280;11820;48.738;9.092;2023-04-10T02:03:28;96829.56;;;7.25;nan
23303;BME280;11820;48.738;9.092;2023-04-10T02:08:35;96826.03;;;7.02;nan
23303;BME280;11820;48.738;9.092;2023-04-10T02:11:23;96826.63;;;6.96;nan
23303;BME280;11820;48.738;9.092;2023-04-10T02:13:54;96823.28;;;6.96;nan
23303;BME280;11820;48.738;9.092;2023-04-10T02:16:23;96818.59;;;6.99;nan
23303;BME280;11820;48.738;9.092;2023-04-10T02:18:50;96826.66;;;7.04;nan
23303;BME280;11820;48.738;9.092;2023-04-10T02:21:16;96827.81;;;7.26;nan
23303;BME280;11820;48.738;9.092;2023-04-10T02:23:42;96825.25;;;7.18;nan
23303;BME280;11820;48.738;9.092;2023-04-10T02:26:07;96821.22;;;7.23;nan
23303;BME280;11820;48.738;9.092;2023-04-10T02:28:33;96817.03;;;7.22;nan
23303;BME280;11820;48.738;9.092;2023-04-10T02:30:58;96819.47;;;7.32;nan
23303;BME280;11820;48.738;9.092;2023-04-10T02:33:24;96821.22;;;7.07;nan
23303;BME280;11820;48.738;9.092;2023-04-10T02:35:49;96820.53;;;6.97;nan
23303;BME280;11820;48.738;9.092;2023-04-10T02:38:14;96818.72;;;6.74;nan
23303;BME280;11820;48.738;9.092;2023-04-10T02:40:40;96821.53;;;6.63;nan
23303;BME280;11820;48.738;9.092;2023-04-10T02:43:05;96822.59;;;6.86;nan
23303;BME280;11820;48.738;9.092;2023-04-10T02:45:30;96824.69;;;6.82;nan
23303;BME280;11820;48.738;9.092;2023-04-10T02:47:57;96834.31;;;6.80;nan
23303;BME280;11820;48.738;9.092;2023-04-10T02:50:22;96836.69;;;6.66;nan
23303;BME280;11820;48.738;9.092;2023-04-10T02:52:48;96836.41;;;6.43;nan
23303;BME280;11820;48.738;9.092;2023-04-10T02:55:13;96836.59;;;6.50;nan
23303;BME280;11820;48.738;9.092;2023-04-10T02:57:39;96841.13;;;6.56;nan
23303;BME280;11820;48.738;9.092;2023-04-10T03:00:06;96839.44;;;6.39;nan
23303;BME280;11820;48.738;9.092;2023-04-10T03:02:32;96838.91;;;6.28;nan
23303;BME280;11820;48.738;9.092;2023-04-10T03:04:57;96849.28;;;5.93;nan
23303;BME280;11820;48.738;9.092;2023-04-10T03:07:24;96842.78;;;6.32;nan
23303;BME280;11820;48.738;9.092;2023-04-10T03:09:50;96846.09;;;5.99;nan
23303;BME280;11820;48.738;9.092;2023-04-10T03:12:15;96836.09;;;5.88;nan
23303;BME280;11820;48.738;9.092;2023-04-10T03:14:40;96836.44;;;5.93;nan
23303;BME280;11820;48.738;9.092;2023-04-10T03:17:06;96842.00;;;6.06;nan
23303;BME280;11820;48.738;9.092;2023-04-10T03:19:31;96826.50;;;6.15;nan
23303;BME280;11820;48.738;9.092;2023-04-10T03:21:56;96820.19;;;6.10;nan
23303;BME280;11820;48.738;9.092;2023-04-10T03:24:22;96817.09;;;6.32;nan
23303;BME280;11820;48.738;9.092;2023-04-10T03:26:47;96817.94;;;6.40;nan
23303;BME280;11820;48.738;9.092;2023-04-10T03:29:12;96816.25;;;6.56;nan
23303;BME280;11820;48.738;9.092;2023-04-10T03:31:42;96809.53;;;6.71;nan
23303;BME280;11820;48.738;9.092;2023-04-10T03:34:08;96815.94;;;6.59;nan
23303;BME280;11820;48.738;9.092;2023-04-10T03:36:33;96809.19;;;6.66;nan
23303;BME280;11820;48.738;9.092;2023-04-10T03:38:58;96808.44;;;6.74;nan
23303;BME280;11820;48.738;9.092;2023-04-10T03:41:24;96800.06;;;6.72;nan
23303;BME280;11820;48.738;9.092;2023-04-10T03:43:49;96801.50;;;6.66;nan
23303;BME280;11820;48.738;9.092;2023-04-10T03:46:15;96792.50;;;6.70;nan
23303;BME280;11820;48.738;9.092;2023-04-10T03:48:40;96795.59;;;6.82;nan
23303;BME280;11820;48.738;9.092;2023-04-10T03:51:05;96796.28;;;6.92;nan
23303;BME280;11820;48.738;9.092;2023-04-10T03:53:32;96791.91;;;6.92;nan
23303;BME280;11820;48.738;9.092;2023-04-10T03:56:00;96788.72;;;6.90;nan
23303;BME280;11820;48.738;9.092;2023-04-10T03:58:26;96786.78;;;6.84;nan
23303;BME280;11820;48.738;9.092;2023-04-10T04:00:51;96791.22;;;6.74;nan
23303;BME280;11820;48.738;9.092;2023-04-10T04:03:16;96796.59;;;6.47;nan
23303;BME280;11820;48.738;9.092;2023-04-10T04:05:42;96784.13;;;6.52;nan
23303;BME280;11820;48.738;9.092;2023-04-10T04:08:07;96787.34;;;6.54;nan
23303;BME280;11820;48.738;9.092;2023-04-10T04:10:32;96788.66;;;6.66;nan
23303;BME280;11820;48.738;9.092;2023-04-10T04:12:57;96784.84;;;6.78;nan
23303;BME280;11820;48.738;9.092;2023-04-10T04:15:23;96775.53;;;6.85;nan
23303;BME280;11820;48.738;9.092;2023-04-10T04:17:48;96777.78;;;6.88;nan
23303;BME280;11820;48.738;9.092;2023-04-10T04:20:14;96772.66;;;6.88;nan
23303;BME280;11820;48.738;9.092;2023-04-10T04:22:39;96771.69;;;6.89;nan
23303;BME280;11820;48.738;9.092;2023-04-10T04:25:06;96771.03;;;6.95;nan
23303;BME280;11820;48.738;9.092;2023-04-10T04:27:34;96774.91;;;6.91;nan
23303;BME280;11820;48.738;9.092;2023-04-10T04:30:00;96772.00;;;6.86;nan
23303;BME280;11820;48.738;9.092;2023-04-10T04:32:26;96775.53;;;6.93;nan
23303;BME280;11820;48.738;9.092;2023-04-10T04:34:52;96779.69;;;6.78;nan
23303;BME280;11820;48.738;9.092;2023-04-10T04:37:17;96774.25;;;6.81;nan
23303;BME280;11820;48.738;9.092;2023-04-10T04:39:42;96786.47;;;6.87;nan
23303;BME280;11820;48.738;9.092;2023-04-10T04:42:08;96785.16;;;6.83;nan
23303;BME280;11820;48.738;9.092;2023-04-10T04:44:33;96785.19;;;6.91;nan
23303;BME280;11820;48.738;9.092;2023-04-10T04:46:59;96782.09;;;6.88;nan
23303;BME280;11820;48.738;9.092;2023-04-10T04:49:24;96775.34;;;6.87;nan
23303;BME280;11820;48.738;9.092;2023-04-10T04:51:50;96773.59;;;6.87;nan
23303;BME280;11820;48.738;9.092;2023-04-10T04:54:15;96778.44;;;6.90;nan
23303;BME280;11820;48.738;9.092;2023-04-10T04:56:40;96775.53;;;6.85;nan
23303;BME280;11820;48.738;9.092;2023-04-10T04:59:06;96780.19;;;6.82;nan
23303;BME280;11820;48.738;9.092;2023-04-10T05:01:31;96777.31;;;6.93;nan
23303;BME280;11820;48.738;9.092;2023-04-10T05:03:56;96781.31;;;6.87;nan
23303;BME280;11820;48.738;9.092;2023-04-10T05:06:22;96777.47;;;6.91;nan
23303;BME280;11820;48.738;9.092;2023-04-10T05:08:47;96786.16;;;6.98;nan
23303;BME280;11820;48.738;9.092;2023-04-10T05:11:12;96776.63;;;6.83;nan
23303;BME280;11820;48.738;9.092;2023-04-10T05:13:37;96782.31;;;7.02;nan
23303;BME280;11820;48.738;9.092;2023-04-10T05:16:03;96780.03;;;6.99;nan
23303;BME280;11820;48.738;9.092;2023-04-10T05:18:28;96785.19;;;6.99;nan
23303;BME280;11820;48.738;9.092;2023-04-10T05:20:54;96783.59;;;7.06;nan
23303;BME280;11820;48.738;9.092;2023-04-10T05:23:20;96779.44;;;7.05;nan
23303;BME280;11820;48.738;9.092;2023-04-10T05:25:45;96780.38;;;7.04;nan
23303;BME280;11820;48.738;9.092;2023-04-10T05:28:10;96794.22;;;7.11;nan
23303;BME280;11820;48.738;9.092;2023-04-10T05:30:36;96793.88;;;7.22;nan
23303;BME280;11820;48.738;9.092;2023-04-10T05:33:01;96794.53;;;7.16;nan
23303;BME280;11820;48.738;9.092;2023-04-10T05:35:26;96792.59;;;7.18;nan
23303;BME280;11820;48.738;9.092;2023-04-10T05:37:52;96784.41;;;7.23;nan
23303;BME280;11820;48.738;9.092;2023-04-10T05:40:17;96778.78;;;7.19;nan
23303;BME280;11820;48.738;9.092;2023-04-10T05:42:42;96781.06;;;7.30;nan
23303;BME280;11820;48.738;9.092;2023-04-10T05:45:08;96779.28;;;7.31;nan
23303;BME280;11820;48.738;9.092;2023-04-10T05:47:33;96787.16;;;7.37;nan
23303;BME280;11820;48.738;9.092;2023-04-10T05:49:59;96781.69;;;7.40;nan
23303;BME280;11820;48.738;9.092;2023-04-10T05:52:24;96784.44;;;7.47;nan
23303;BME280;11820;48.738;9.092;2023-04-10T05:54:50;96789.75;;;7.29;nan
23303;BME280;11820;48.738;9.092;2023-04-10T05:57:16;96787.16;;;7.45;nan
23303;BME280;11820;48.738;9.092;2023-04-10T05:59:42;96791.31;;;7.46;nan
23303;BME280;11820;48.738;9.092;2023-04-10T06:02:07;96790.38;;;7.55;nan
23303;BME280;11820;48.738;9.092;2023-04-10T06:04:32;96784.72;;;7.60;nan
23303;BME280;11820;48.738;9.092;2023-04-10T06:06:57;96793.91;;;7.62;nan
23303;BME280;11820;48.738;9.092;2023-04-10T06:09:23;96796.16;;;7.65;nan
23303;BME280;11820;48.738;9.092;2023-04-10T06:11:49;96795.16;;;7.74;nan
23303;BME280;11820;48.738;9.092;2023-04-10T06:14:14;96788.91;;;7.61;nan
23303;BME280;11820;48.738;9.092;2023-04-10T06:16:40;96785.69;;;7.75;nan
23303;BME280;11820;48.738;9.092;2023-04-10T06:19:05;96793.09;;;7.78;nan
23303;BME280;11820;48.738;9.092;2023-04-10T06:21:31;96792.91;;;7.71;nan
23303;BME280;11820;48.738;9.092;2023-04-10T06:23:56;96791.28;;;7.78;nan
23303;BME280;11820;48.738;9.092;2023-04-10T06:26:22;96793.69;;;7.96;nan
23303;BME280;11820;48.738;9.092;2023-04-10T06:28:48;96788.72;;;7.86;nan
23303;BME280;11820;48.738;9.092;2023-04-10T06:31:13;96791.31;;;7.86;nan
23303;BME280;11820;48.738;9.092;2023-04-10T06:33:39;96787.59;;;7.89;nan
23303;BME280;11820;48.738;9.092;2023-04-10T06:36:04;96787.06;;;8.01;nan
23303;BME280;11820;48.738;9.092;2023-04-10T06:38:30;96781.28;;;8.07;nan
23303;BME280;11820;48.738;9.092;2023-04-10T06:40:58;96777.94;;;7.98;nan
23303;BME280;11820;48.738;9.092;2023-04-10T06:43:23;96779.88;;;7.97;nan
23303;BME280;11820;48.738;9.092;2023-04-10T06:45:48;96793.19;;;8.08;nan
23303;BME280;11820;48.738;9.092;2023-04-10T06:48:14;96784.63;;;8.15;nan
23303;BME280;11820;48.738;9.092;2023-04-10T06:50:39;96784.84;;;8.06;nan
23303;BME280;11820;48.738;9.092;2023-04-10T06:53:05;96782.75;;;8.17;nan
23303;BME280;11820;48.738;9.092;2023-04-10T06:55:30;96786.06;;;8.26;nan
23303;BME280;11820;48.738;9.092;2023-04-10T06:57:55;96781.53;;;8.36;nan
23303;BME280;11820;48.738;9.092;2023-04-10T07:00:21;96783.50;;;8.26;nan
23303;BME280;11820;48.738;9.092;2023-04-10T07:02:47;96778.97;;;8.28;nan
23303;BME280;11820;48.738;9.092;2023-04-10T07:05:12;96768.38;;;8.31;nan
23303;BME280;11820;48.738;9.092;2023-04-10T07:07:38;96764.00;;;8.15;nan
23303;BME280;11820;48.738;9.092;2023-04-10T07:10:03;96766.72;;;8.38;nan
23303;BME280;11820;48.738;9.092;2023-04-10T07:12:29;96762.69;;;8.35;nan
23303;BME280;11820;48.738;9.092;2023-04-10T07:14:54;96759.63;;;8.40;nan
23303;BME280;11820;48.738;9.092;2023-04-10T07:17:20;96753.09;;;8.60;nan
23303;BME280;11820;48.738;9.092;2023-04-10T07:19:46;96752.53;;;8.72;nan
23303;BME280;11820;48.738;9.092;2023-04-10T07:22:11;96755.41;;;8.77;nan
23303;BME280;11820;48.738;9.092;2023-04-10T07:24:37;96759.47;;;8.72;nan
23303;BME280;11820;48.738;9.092;2023-04-10T07:27:02;96757.47;;;8.82;nan
23303;BME280;11820;48.738;9.092;2023-04-10T07:29:27;96768.94;;;9.02;nan
23303;BME280;11820;48.738;9.092;2023-04-10T07:31:53;96769.53;;;9.12;nan
23303;BME280;11820;48.738;9.092;2023-04-10T07:34:18;96763.56;;;9.11;nan
23303;BME280;11820;48.738;9.092;2023-04-10T07:36:43;96773.88;;;9.11;nan
23303;BME280;11820;48.738;9.092;2023-04-10T07:39:09;96766.25;;;9.18;nan
23303;BME280;11820;48.738;9.092;2023-04-10T07:41:34;96759.28;;;9.26;nan
23303;BME280;11820;48.738;9.092;2023-04-10T07:44:00;96762.53;;;9.43;nan
23303;BME280;11820;48.738;9.092;2023-04-10T07:46:25;96774.53;;;9.36;nan
23303;BME280;11820;48.738;9.092;2023-04-10T07:48:51;96765.88;;;9.43;nan
23303;BME280;11820;48.738;9.092;2023-04-10T07:51:17;96762.28;;;9.52;nan
23303;BME280;11820;48.738;9.092;2023-04-10T07:53:42;96768.19;;;9.61;nan
23303;BME280;11820;48.738;9.092;2023-04-10T07:56:16;96772.38;;;9.62;nan
23303;BME280;11820;48.738;9.092;2023-04-10T07:58:42;96770.69;;;9.68;nan
23303;BME280;11820;48.738;9.092;2023-04-10T08:01:07;96775.69;;;9.70;nan
23303;BME280;11820;48.738;9.092;2023-04-10T08:03:40;96771.22;;;9.78;nan
23303;BME280;11820;48.738;9.092;2023-04-10T08:06:07;96764.03;;;9.88;nan
23303;BME280;11820;48.738;9.092;2023-04-10T08:08:37;96766.06;;;9.93;nan
23303;BME280;11820;48.738;9.092;2023-04-10T08:11:07;96757.94;;;10.04;nan
23303;BME280;11820;48.738;9.092;2023-04-10T08:13:32;96754.13;;;10.14;nan
23303;BME280;11820;48.738;9.092;2023-04-10T08:15:58;96754.72;;;10.16;nan
23303;BME280;11820;48.738;9.092;2023-04-10T08:18:24;96755.50;;;10.31;nan
23303;BME280;11820;48.738;9.092;2023-04-10T08:20:49;96754.38;;;10.34;nan
23303;BME280;11820;48.738;9.092;2023-04-10T08:23:14;96756.06;;;10.41;nan
23303;BME280;11820;48.738;9.092;2023-04-10T08:25:40;96758.09;;;10.46;nan
23303;BME280;11820;48.738;9.092;2023-04-10T08:28:05;96752.13;;;10.45;nan
23303;BME280;11820;48.738;9.092;2023-04-10T08:30:30;96754.22;;;10.56;nan
23303;BME280;11820;48.738;9.092;2023-04-10T08:32:56;96752.28;;;10.58;nan
23303;BME280;11820;48.738;9.092;2023-04-10T08:35:21;96750.03;;;10.70;nan
23303;BME280;11820;48.738;9.092;2023-04-10T08:37:46;96754.84;;;10.73;nan
23303;BME280;11820;48.738;9.092;2023-04-10T08:40:11;96755.38;;;10.68;nan
23303;BME280;11820;48.738;9.092;2023-04-10T08:42:37;96752.44;;;10.71;nan
23303;BME280;11820;48.738;9.092;2023-04-10T08:45:02;96749.34;;;10.82;nan
23303;BME280;11820;48.738;9.092;2023-04-10T08:47:28;96741.50;;;10.90;nan
23303;BME280;11820;48.738;9.092;2023-04-10T08:50:00;96748.69;;;10.95;nan
23303;BME280;11820;48.738;9.092;2023-04-10T08:52:30;96747.53;;;10.97;nan
23303;BME280;11820;48.738;9.092;2023-04-10T08:54:58;96748.03;;;11.07;nan
23303;BME280;11820;48.738;9.092;2023-04-10T08:57:27;96744.28;;;11.30;nan
23303;BME280;11820;48.738;9.092;2023-04-10T08:59:52;96740.84;;;11.24;nan
23303;BME280;11820;48.738;9.092;2023-04-10T09:02:19;96740.50;;;11.33;nan
23303;BME280;11820;48.738;9.092;2023-04-10T09:04:47;96735.59;;;11.38;nan
23303;BME280;11820;48.738;9.092;2023-04-10T09:07:16;96742.69;;;11.50;nan
23303;BME280;11820;48.738;9.092;2023-04-10T09:09:42;96742.00;;;11.63;nan
23303;BME280;11820;48.738;9.092;2023-04-10T09:12:07;96736.19;;;11.61;nan
23303;BME280;11820;48.738;9.092;2023-04-10T09:14:34;96736.31;;;11.74;nan
23303;BME280;11820;48.738;9.092;2023-04-10T09:19:38;96738.13;;;11.80;nan
23303;BME280;11820;48.738;9.092;2023-04-10T09:22:04;96733.81;;;11.87;nan
23303;BME280;11820;48.738;9.092;2023-04-10T09:24:29;96735.47;;;12.01;nan
23303;BME280;11820;48.738;9.092;2023-04-10T09:26:54;96735.53;;;12.07;nan
23303;BME280;11820;48.738;9.092;2023-04-10T09:29:20;96714.41;;;12.10;nan
23303;BME280;11820;48.738;9.092;2023-04-10T09:31:46;96722.84;;;12.19;nan
23303;BME280;11820;48.738;9.092;2023-04-10T09:34:21;96714.88;;;12.27;nan
23303;BME280;11820;48.738;9.092;2023-04-10T09:36:57;96707.19;;;12.46;nan
23303;BME280;11820;48.738;9.092;2023-04-10T09:39:38;96700.25;;;12.60;nan
23303;BME280;11820;48.738;9.092;2023-04-10T09:42:08;96692.91;;;12.70;nan
23303;BME280;11820;48.738;9.092;2023-04-10T09:44:39;96689.34;;;12.77;nan
23303;BME280;11820;48.738;9.092;2023-04-10T09:47:19;96691.31;;;12.82;nan
23303;BME280;11820;48.738;9.092;2023-04-10T09:49:49;96684.75;;;12.86;nan
23303;BME280;11820;48.738;9.092;2023-04-10T09:54:42;96674.66;;;13.16;nan
23303;BME280;11820;48.738;9.092;2023-04-10T09:57:08;96677.63;;;13.39;nan
23303;BME280;11820;48.738;9.092;2023-04-10T09:59:36;96661.44;;;13.37;nan
23303;BME280;11820;48.738;9.092;2023-04-10T10:02:02;96667.47;;;13.44;nan
23303;BME280;11820;48.738;9.092;2023-04-10T10:04:29;96667.22;;;13.65;nan
23303;BME280;11820;48.738;9.092;2023-04-10T10:06:54;96658.63;;;13.58;nan
23303;BME280;11820;48.738;9.092;2023-04-10T10:09:20;96661.41;;;13.76;nan
23303;BME280;11820;48.738;9.092;2023-04-10T10:11:47;96662.19;;;13.83;nan
23303;BME280;11820;48.738;9.092;2023-04-10T10:14:14;96653.53;;;14.02;nan
23303;BME280;11820;48.738;9.092;2023-04-10T10:16:49;96648.94;;;14.17;nan
23303;BME280;11820;48.738;9.092;2023-04-10T10:19:22;96642.09;;;14.23;nan
23303;BME280;11820;48.738;9.092;2023-04-10T10:21:51;96646.06;;;14.32;nan
23303;BME280;11820;48.738;9.092;2023-04-10T10:24:19;96632.53;;;14.54;nan
23303;BME280;11820;48.738;9.092;2023-04-10T10:26:45;96634.34;;;14.54;nan
23303;BME280;11820;48.738;9.092;2023-04-10T10:29:13;96622.53;;;14.58;nan
23303;BME280;11820;48.738;9.092;2023-04-10T10:31:39;96623.25;;;14.71;nan
23303;BME280;11820;48.738;9.092;2023-04-10T10:34:05;96614.75;;;14.82;nan
23303;BME280;11820;48.738;9.092;2023-04-10T10:36:38;96611.28;;;14.88;nan
23303;BME280;11820;48.738;9.092;2023-04-10T10:39:33;96608.44;;;14.96;nan
23303;BME280;11820;48.738;9.092;2023-04-10T10:47:15;96588.19;;;15.65;nan
23303;BME280;11820;48.738;9.092;2023-04-10T10:49:59;96592.38;;;16.20;nan
23303;BME280;11820;48.738;9.092;2023-04-10T10:52:57;96590.19;;;15.87;nan
23303;BME280;11820;48.738;9.092;2023-04-10T10:58:00;96582.09;;;16.25;nan
23303;BME280;11820;48.738;9.092;2023-04-10T11:06:01;96571.53;;;16.31;nan
23303;BME280;11820;48.738;9.092;2023-04-10T11:08:36;96571.41;;;16.85;nan
23303;BME280;11820;48.738;9.092;2023-04-10T11:11:11;96565.50;;;16.89;nan
23303;BME280;11820;48.738;9.092;2023-04-10T11:16:22;96561.13;;;17.47;nan
23303;BME280;11820;48.738;9.092;2023-04-10T11:21:21;96555.63;;;17.83;nan
23303;BME280;11820;48.738;9.092;2023-04-10T11:29:03;96558.28;;;18.50;nan
23303;BME280;11820;48.738;9.092;2023-04-10T11:31:29;96548.16;;;18.14;nan
23303;BME280;11820;48.738;9.092;2023-04-10T11:36:22;96544.66;;;18.98;nan
23303;BME280;11820;48.738;9.092;2023-04-10T11:39:02;96537.75;;;19.08;nan
23303;BME280;11820;48.738;9.092;2023-04-10T11:41:31;96545.47;;;18.98;nan
23303;BME280;11820;48.738;9.092;2023-04-10T11:43:59;96544.69;;;19.31;nan
23303;BME280;11820;48.738;9.092;2023-04-10T11:46:25;96542.75;;;20.02;nan
23303;BME280;11820;48.738;9.092;2023-04-10T11:48:52;96536.44;;;20.24;nan
23303;BME280;11820;48.738;9.092;2023-04-10T11:51:18;96533.31;;;20.80;nan
23303;BME280;11820;48.738;9.092;2023-04-10T11:53:43;96528.50;;;20.72;nan
23303;BME280;11820;48.738;9.092;2023-04-10T11:56:16;96525.56;;;20.95;nan
23303;BME280;11820;48.738;9.092;2023-04-10T11:58:42;96528.97;;;21.27;nan
23303;BME280;11820;48.738;9.092;2023-04-10T12:01:07;96517.06;;;21.61;nan
23303;BME280;11820;48.738;9.092;2023-04-10T12:03:39;96514.06;;;21.42;nan
23303;BME280;11820;48.738;9.092;2023-04-10T12:06:07;96493.22;;;21.77;nan
23303;BME280;11820;48.738;9.092;2023-04-10T12:08:36;96491.72;;;21.50;nan
23303;BME280;11820;48.738;9.092;2023-04-10T12:11:02;96498.19;;;21.79;nan
23303;BME280;11820;48.738;9.092;2023-04-10T12:13:28;96485.53;;;21.25;nan
23303;BME280;11820;48.738;9.092;2023-04-10T12:16:00;96478.78;;;21.90;nan
23303;BME280;11820;48.738;9.092;2023-04-10T12:18:27;96479.59;;;21.44;nan
23303;BME280;11820;48.738;9.092;2023-04-10T12:20:53;96472.94;;;21.27;nan
23303;BME280;11820;48.738;9.092;2023-04-10T12:23:22;96478.53;;;21.45;nan
23303;BME280;11820;48.738;9.092;2023-04-10T12:25:48;96480.06;;;21.82;nan
23303;BME280;11820;48.738;9.092;2023-04-10T12:28:19;96476.16;;;21.43;nan
23303;BME280;11820;48.738;9.092;2023-04-10T12:30:49;96464.25;;;21.31;nan
23303;BME280;11820;48.738;9.092;2023-04-10T12:33:21;96467.66;;;21.78;nan
23303;BME280;11820;48.738;9.092;2023-04-10T12:35:47;96466.19;;;22.12;nan
23303;BME280;11820;48.738;9.092;2023-04-10T12:38:12;96466.38;;;23.70;nan
23303;BME280;11820;48.738;9.092;2023-04-10T12:40:37;96462.53;;;23.32;nan
23303;BME280;11820;48.738;9.092;2023-04-10T12:43:04;96462.59;;;22.38;nan
23303;BME280;11820;48.738;9.092;2023-04-10T12:45:45;96469.53;;;21.82;nan
23303;BME280;11820;48.738;9.092;2023-04-10T12:48:10;96461.38;;;21.33;nan
23303;BME280;11820;48.738;9.092;2023-04-10T12:50:45;96458.81;;;21.01;nan
23303;BME280;11820;48.738;9.092;2023-04-10T12:53:13;96456.31;;;20.53;nan
23303;BME280;11820;48.738;9.092;2023-04-10T12:55:39;96441.44;;;20.32;nan
23303;BME280;11820;48.738;9.092;2023-04-10T12:58:19;96452.50;;;19.86;nan
23303;BME280;11820;48.738;9.092;2023-04-10T13:00:45;96444.88;;;19.64;nan
23303;BME280;11820;48.738;9.092;2023-04-10T13:03:11;96448.09;;;20.13;nan
23303;BME280;11820;48.738;9.092;2023-04-10T13:05:36;96435.66;;;20.67;nan
23303;BME280;11820;48.738;9.092;2023-04-10T13:08:01;96443.66;;;20.82;nan
23303;BME280;11820;48.738;9.092;2023-04-10T13:10:27;96439.44;;;20.44;nan
23303;BME280;11820;48.738;9.092;2023-04-10T13:12:52;96435.31;;;19.74;nan
23303;BME280;11820;48.738;9.092;2023-04-10T13:15:18;96432.50;;;19.80;nan
23303;BME280;11820;48.738;9.092;2023-04-10T13:17:44;96428.47;;;19.52;nan
23303;BME280;11820;48.738;9.092;2023-04-10T13:20:09;96429.75;;;19.49;nan
23303;BME280;11820;48.738;9.092;2023-04-10T13:22:35;96428.88;;;19.86;nan
23303;BME280;11820;48.738;9.092;2023-04-10T13:25:00;96419.88;;;20.30;nan
23303;BME280;11820;48.738;9.092;2023-04-10T13:27:27;96407.19;;;20.85;nan
23303;BME280;11820;48.738;9.092;2023-04-10T13:29:52;96421.19;;;20.64;nan
23303;BME280;11820;48.738;9.092;2023-04-10T13:32:18;96422.75;;;20.02;nan
23303;BME280;11820;48.738;9.092;2023-04-10T13:34:43;96429.47;;;19.93;nan
23303;BME280;11820;48.738;9.092;2023-04-10T13:37:09;96415.56;;;20.19;nan
23303;BME280;11820;48.738;9.092;2023-04-10T13:39:37;96411.31;;;20.13;nan
23303;BME280;11820;48.738;9.092;2023-04-10T13:42:02;96408.56;;;20.03;nan
23303;BME280;11820;48.738;9.092;2023-04-10T13:44:27;96405.78;;;20.15;nan
23303;BME280;11820;48.738;9.092;2023-04-10T13:46:53;96411.28;;;20.08;nan
23303;BME280;11820;48.738;9.092;2023-04-10T13:49:19;96407.69;;;19.71;nan
23303;BME280;11820;48.738;9.092;2023-04-10T13:51:46;96402.41;;;20.14;nan
23303;BME280;11820;48.738;9.092;2023-04-10T13:54:11;96393.59;;;20.67;nan
23303;BME280;11820;48.738;9.092;2023-04-10T13:56:36;96380.50;;;20.72;nan
23303;BME280;11820;48.738;9.092;2023-04-10T13:59:03;96385.75;;;20.35;nan
23303;BME280;11820;48.738;9.092;2023-04-10T14:01:29;96385.25;;;20.07;nan
23303;BME280;11820;48.738;9.092;2023-04-10T14:03:54;96391.31;;;19.86;nan
23303;BME280;11820;48.738;9.092;2023-04-10T14:06:20;96387.50;;;19.72;nan
23303;BME280;11820;48.738;9.092;2023-04-10T14:08:45;96384.47;;;19.59;nan
23303;BME280;11820;48.738;9.092;2023-04-10T14:11:10;96379.91;;;19.49;nan